sensor_id;sensor_type;location;lat;lon;timestamp;temperature;humidity
14097;DHT22;7125;48.106;11.544;2022-09-19T00:00:44;8.60;99.90
14097;DHT22;7125;48.106;11.544;2022-09-19T00:03:11;8.60;99.90
14097;DHT22;7125;48.106;11.544;2022-09-19T00:05:39;8.60;99.90
14097;DHT22;7125;48.106;11.544;2022-09-19T00:08:06;8.60;99.90
14097;DHT22;7125;48.106;11.544;2022-09-19T00:10:37;8.60;99.90
14097;DHT22;7125;48.106;11.544;2022-09-19T00:13:06;8.60;99.90
14097;DHT22;7125;48.106;11.544;2022-09-19T00:15:35;8.50;99.90
14097;DHT22;7125;48.106;11.544;2022-09-19T00:18:02;8.50;99.90
14097;DHT22;7125;48.106;11.544;2022-09-19T00:20:30;8.50;99.90
14097;DHT22;7125;48.106;11.544;2022-09-19T00:22:58;8.50;99.90
14097;DHT22;7125;48.106;11.544;2022-09-19T00:25:42;8.50;99.90
14097;DHT22;7125;48.106;11.544;2022-09-19T00:28:11;8.50;99.90
14097;DHT22;7125;48.106;11.544;2022-09-19T00:30:38;8.50;99.90
14097;DHT22;7125;48.106;11.544;2022-09-19T00:33:05;8.50;99.90
14097;DHT22;7125;48.106;11.544;2022-09-19T00:35:32;8.50;99.90
14097;DHT22;7125;48.106;11.544;2022-09-19T00:37:59;8.40;99.90
14097;DHT22;7125;48.106;11.544;2022-09-19T00:40:26;8.50;99.90
14097;DHT22;7125;48.106;11.544;2022-09-19T00:42:53;8.40;99.90
14097;DHT22;7125;48.106;11.544;2022-09-19T00:45:22;8.40;99.90
14097;DHT22;7125;48.106;11.544;2022-09-19T00:47:51;8.40;99.90
14097;DHT22;7125;48.106;11.544;2022-09-19T00:50:24;8.40;99.90
14097;DHT22;7125;48.106;11.544;2022-09-19T00:52:55;8.40;99.90
14097;DHT22;7125;48.106;11.544;2022-09-19T00:55:22;8.40;99.90
14097;DHT22;7125;48.106;11.544;2022-09-19T00:57:55;8.40;99.90
14097;DHT22;7125;48.106;11.544;2022-09-19T01:00:26;8.30;99.90
14097;DHT22;7125;48.106;11.544;2022-09-19T01:02:53;8.40;99.90
14097;DHT22;7125;48.106;11.544;2022-09-19T01:05:27;8.40;99.90
14097;DHT22;7125;48.106;11.544;2022-09-19T01:08:13;8.40;99.90
14097;DHT22;7125;48.106;11.544;2022-09-19T01:10:54;8.30;99.90
14097;DHT22;7125;48.106;11.544;2022-09-19T01:13:28;8.30;99.90
14097;DHT22;7125;48.106;11.544;2022-09-19T01:16:07;8.30;99.90
14097;DHT22;7125;48.106;11.544;2022-09-19T01:18:42;8.30;99.90
14097;DHT22;7125;48.106;11.544;2022-09-19T01:21:23;8.30;99.90
14097;DHT22;7125;48.106;11.544;2022-09-19T01:27:50;8.30;99.90
14097;DHT22;7125;48.106;11.544;2022-09-19T01:30:18;8.30;99.90
14097;DHT22;7125;48.106;11.544;2022-09-19T01:32:49;8.30;99.90
14097;DHT22;7125;48.106;11.544;2022-09-19T01:35:21;8.30;99.90
14097;DHT22;7125;48.106;11.544;2022-09-19T01:37:55;8.30;99.90
14097;DHT22;7125;48.106;11.544;2022-09-19T01:40:26;8.40;99.90
14097;DHT22;7125;48.106;11.544;2022-09-19T01:43:00;8.30;99.90
14097;DHT22;7125;48.106;11.544;2022-09-19T01:45:31;8.30;99.90
14097;DHT22;7125;48.106;11.544;2022-09-19T01:48:07;8.30;99.90
14097;DHT22;7125;48.106;11.544;2022-09-19T01:50:54;8.30;99.90
14097;DHT22;7125;48.106;11.544;2022-09-19T01:53:34;8.20;99.90
14097;DHT22;7125;48.106;11.544;2022-09-19T01:56:28;8.10;99.90
14097;DHT22;7125;48.106;11.544;2022-09-19T01:59:14;8.00;99.90
14097;DHT22;7125;48.106;11.544;2022-09-19T02:01:52;7.90;99.90
14097;DHT22;7125;48.106;11.544;2022-09-19T02:04:24;7.80;99.90
14097;DHT22;7125;48.106;11.544;2022-09-19T02:06:55;7.80;99.90
14097;DHT22;7125;48.106;11.544;2022-09-19T02:09:35;7.70;99.90
14097;DHT22;7125;48.106;11.544;2022-09-19T02:12:05;7.80;99.90
14097;DHT22;7125;48.106;11.544;2022-09-19T02:14:37;7.70;99.90
14097;DHT22;7125;48.106;11.544;2022-09-19T02:17:08;7.80;99.90
14097;DHT22;7125;48.106;11.544;2022-09-19T02:19:39;7.70;99.90
14097;DHT22;7125;48.106;11.544;2022-09-19T02:22:10;7.70;99.90
14097;DHT22;7125;48.106;11.544;2022-09-19T02:24:40;7.60;99.90
14097;DHT22;7125;48.106;11.544;2022-09-19T02:27:13;7.50;99.90
14097;DHT22;7125;48.106;11.544;2022-09-19T02:29:47;7.50;99.90
14097;DHT22;7125;48.106;11.544;2022-09-19T02:32:19;7.50;99.90
14097;DHT22;7125;48.106;11.544;2022-09-19T02:34:51;7.50;99.90
14097;DHT22;7125;48.106;11.544;2022-09-19T02:37:25;7.50;99.90
14097;DHT22;7125;48.106;11.544;2022-09-19T02:39:59;7.50;99.90
14097;DHT22;7125;48.106;11.544;2022-09-19T02:42:47;7.50;99.90
14097;DHT22;7125;48.106;11.544;2022-09-19T02:45:23;7.50;99.90
14097;DHT22;7125;48.106;11.544;2022-09-19T02:48:05;7.50;99.90
14097;DHT22;7125;48.106;11.544;2022-09-19T02:50:40;7.50;99.90
14097;DHT22;7125;48.106;11.544;2022-09-19T02:53:13;7.50;99.90
14097;DHT22;7125;48.106;11.544;2022-09-19T02:55:45;7.50;99.90
14097;DHT22;7125;48.106;11.544;2022-09-19T02:58:16;7.50;99.90
14097;DHT22;7125;48.106;11.544;2022-09-19T03:00:47;7.50;99.90
14097;DHT22;7125;48.106;11.544;2022-09-19T03:03:24;7.50;99.90
14097;DHT22;7125;48.106;11.544;2022-09-19T03:06:13;7.50;99.90
14097;DHT22;7125;48.106;11.544;2022-09-19T03:08:44;7.50;99.90
14097;DHT22;7125;48.106;11.544;2022-09-19T03:11:17;7.50;99.90
14097;DHT22;7125;48.106;11.544;2022-09-19T03:13:45;7.50;99.90
14097;DHT22;7125;48.106;11.544;2022-09-19T03:16:19;7.40;99.90
14097;DHT22;7125;48.106;11.544;2022-09-19T03:18:48;7.40;99.90
14097;DHT22;7125;48.106;11.544;2022-09-19T03:21:21;7.40;99.90
14097;DHT22;7125;48.106;11.544;2022-09-19T03:23:50;7.40;99.90
14097;DHT22;7125;48.106;11.544;2022-09-19T03:26:25;7.40;99.90
14097;DHT22;7125;48.106;11.544;2022-09-19T03:28:54;7.30;99.90
14097;DHT22;7125;48.106;11.544;2022-09-19T03:31:24;7.30;99.90
14097;DHT22;7125;48.106;11.544;2022-09-19T03:33:51;7.30;99.90
14097;DHT22;7125;48.106;11.544;2022-09-19T03:36:18;7.20;99.90
14097;DHT22;7125;48.106;11.544;2022-09-19T03:38:47;7.20;99.90
14097;DHT22;7125;48.106;11.544;2022-09-19T03:41:22;7.10;99.90
14097;DHT22;7125;48.106;11.544;2022-09-19T03:43:51;7.10;99.90
14097;DHT22;7125;48.106;11.544;2022-09-19T03:46:19;7.10;99.90
14097;DHT22;7125;48.106;11.544;2022-09-19T03:48:50;7.00;99.90
14097;DHT22;7125;48.106;11.544;2022-09-19T03:51:17;7.00;99.90
14097;DHT22;7125;48.106;11.544;2022-09-19T03:53:45;7.00;99.90
14097;DHT22;7125;48.106;11.544;2022-09-19T03:56:14;7.00;99.90
14097;DHT22;7125;48.106;11.544;2022-09-19T03:58:42;7.00;99.90
14097;DHT22;7125;48.106;11.544;2022-09-19T04:01:10;7.00;99.90
14097;DHT22;7125;48.106;11.544;2022-09-19T04:03:39;7.00;99.90
14097;DHT22;7125;48.106;11.544;2022-09-19T04:06:10;6.90;99.90
14097;DHT22;7125;48.106;11.544;2022-09-19T04:08:37;6.90;99.90
14097;DHT22;7125;48.106;11.544;2022-09-19T04:11:05;6.90;99.90
14097;DHT22;7125;48.106;11.544;2022-09-19T04:13:33;6.80;99.90
14097;DHT22;7125;48.106;11.544;2022-09-19T04:16:07;6.80;99.90
14097;DHT22;7125;48.106;11.544;2022-09-19T04:18:36;6.80;99.90
14097;DHT22;7125;48.106;11.544;2022-09-19T04:21:07;6.80;99.90
14097;DHT22;7125;48.106;11.544;2022-09-19T04:23:47;6.80;99.90
14097;DHT22;7125;48.106;11.544;2022-09-19T04:26:17;6.80;99.90
14097;DHT22;7125;48.106;11.544;2022-09-19T04:28:47;6.80;99.90
14097;DHT22;7125;48.106;11.544;2022-09-19T04:31:14;6.70;99.90
14097;DHT22;7125;48.106;11.544;2022-09-19T04:33:46;6.70;99.90
14097;DHT22;7125;48.106;11.544;2022-09-19T04:36:13;6.70;99.90
14097;DHT22;7125;48.106;11.544;2022-09-19T04:38:42;6.70;99.90
14097;DHT22;7125;48.106;11.544;2022-09-19T04:41:19;6.70;99.90
14097;DHT22;7125;48.106;11.544;2022-09-19T04:43:46;6.70;99.90
14097;DHT22;7125;48.106;11.544;2022-09-19T04:46:48;6.70;99.90
14097;DHT22;7125;48.106;11.544;2022-09-19T04:49:16;6.70;99.90
14097;DHT22;7125;48.106;11.544;2022-09-19T04:51:43;6.70;99.90
14097;DHT22;7125;48.106;11.544;2022-09-19T04:54:11;6.70;99.90
14097;DHT22;7125;48.106;11.544;2022-09-19T04:56:41;6.70;99.90
14097;DHT22;7125;48.106;11.544;2022-09-19T04:59:10;6.70;99.90
14097;DHT22;7125;48.106;11.544;2022-09-19T05:01:38;6.60;99.90
14097;DHT22;7125;48.106;11.544;2022-09-19T05:04:05;6.70;99.90
14097;DHT22;7125;48.106;11.544;2022-09-19T05:06:34;6.70;99.90
14097;DHT22;7125;48.106;11.544;2022-09-19T05:09:03;6.60;99.90
14097;DHT22;7125;48.106;11.544;2022-09-19T05:11:37;6.60;99.90
14097;DHT22;7125;48.106;11.544;2022-09-19T05:14:12;6.60;99.90
14097;DHT22;7125;48.106;11.544;2022-09-19T05:16:45;6.60;99.90
14097;DHT22;7125;48.106;11.544;2022-09-19T05:19:12;6.60;99.90
14097;DHT22;7125;48.106;11.544;2022-09-19T05:21:40;6.60;99.90
14097;DHT22;7125;48.106;11.544;2022-09-19T05:24:09;6.60;99.90
14097;DHT22;7125;48.106;11.544;2022-09-19T05:26:36;6.60;99.90
14097;DHT22;7125;48.106;11.544;2022-09-19T05:29:12;6.60;99.90
14097;DHT22;7125;48.106;11.544;2022-09-19T05:31:52;6.60;99.90
14097;DHT22;7125;48.106;11.544;2022-09-19T05:34:46;6.60;99.90
14097;DHT22;7125;48.106;11.544;2022-09-19T05:37:40;6.60;99.90
14097;DHT22;7125;48.106;11.544;2022-09-19T05:40:27;6.60;99.90
14097;DHT22;7125;48.106;11.544;2022-09-19T05:43:09;6.60;99.90
14097;DHT22;7125;48.106;11.544;2022-09-19T05:45:37;6.70;99.90
14097;DHT22;7125;48.106;11.544;2022-09-19T05:48:05;6.70;99.90
14097;DHT22;7125;48.106;11.544;2022-09-19T05:50:35;6.70;99.90
14097;DHT22;7125;48.106;11.544;2022-09-19T05:53:03;6.70;99.90
14097;DHT22;7125;48.106;11.544;2022-09-19T05:55:48;6.80;99.90
14097;DHT22;7125;48.106;11.544;2022-09-19T05:58:27;6.80;99.90
14097;DHT22;7125;48.106;11.544;2022-09-19T06:01:02;6.80;99.90
14097;DHT22;7125;48.106;11.544;2022-09-19T06:03:29;6.80;99.90
14097;DHT22;7125;48.106;11.544;2022-09-19T06:08:27;6.90;99.90
14097;DHT22;7125;48.106;11.544;2022-09-19T06:10:59;6.90;99.90
14097;DHT22;7125;48.106;11.544;2022-09-19T06:13:26;7.00;99.90
14097;DHT22;7125;48.106;11.544;2022-09-19T06:16:16;7.00;99.90
14097;DHT22;7125;48.106;11.544;2022-09-19T06:19:16;7.00;99.90
14097;DHT22;7125;48.106;11.544;2022-09-19T06:21:46;7.10;99.90
14097;DHT22;7125;48.106;11.544;2022-09-19T06:24:15;7.20;99.90
14097;DHT22;7125;48.106;11.544;2022-09-19T06:26:46;7.20;99.90
14097;DHT22;7125;48.106;11.544;2022-09-19T06:29:13;7.20;99.90
14097;DHT22;7125;48.106;11.544;2022-09-19T06:31:49;7.20;99.90
14097;DHT22;7125;48.106;11.544;2022-09-19T06:34:18;7.20;99.90
14097;DHT22;7125;48.106;11.544;2022-09-19T06:36:45;7.20;99.90
14097;DHT22;7125;48.106;11.544;2022-09-19T06:39:12;7.20;99.90
14097;DHT22;7125;48.106;11.544;2022-09-19T06:42:00;7.20;99.90
14097;DHT22;7125;48.106;11.544;2022-09-19T06:44:40;7.20;99.90
14097;DHT22;7125;48.106;11.544;2022-09-19T06:47:13;7.30;99.90
14097;DHT22;7125;48.106;11.544;2022-09-19T06:49:52;7.30;99.90
14097;DHT22;7125;48.106;11.544;2022-09-19T06:52:31;7.40;99.90
14097;DHT22;7125;48.106;11.544;2022-09-19T06:55:00;7.40;99.90
14097;DHT22;7125;48.106;11.544;2022-09-19T07:00:09;7.50;99.90
14097;DHT22;7125;48.106;11.544;2022-09-19T07:02:39;7.50;99.90
14097;DHT22;7125;48.106;11.544;2022-09-19T07:05:07;7.60;99.90
14097;DHT22;7125;48.106;11.544;2022-09-19T07:07:45;7.60;99.90
14097;DHT22;7125;48.106;11.544;2022-09-19T07:10:12;7.60;99.90
14097;DHT22;7125;48.106;11.544;2022-09-19T07:12:40;7.60;99.90
14097;DHT22;7125;48.106;11.544;2022-09-19T07:15:09;7.70;99.90
14097;DHT22;7125;48.106;11.544;2022-09-19T07:17:36;7.70;99.90
14097;DHT22;7125;48.106;11.544;2022-09-19T07:20:08;7.70;99.90
14097;DHT22;7125;48.106;11.544;2022-09-19T07:23:00;7.70;99.90
14097;DHT22;7125;48.106;11.544;2022-09-19T07:25:52;7.70;99.90
14097;DHT22;7125;48.106;11.544;2022-09-19T07:28:21;7.80;99.90
14097;DHT22;7125;48.106;11.544;2022-09-19T07:30:50;7.70;99.90
14097;DHT22;7125;48.106;11.544;2022-09-19T07:33:18;7.80;99.90
14097;DHT22;7125;48.106;11.544;2022-09-19T07:35:48;7.80;99.90
14097;DHT22;7125;48.106;11.544;2022-09-19T07:38:18;7.80;99.90
14097;DHT22;7125;48.106;11.544;2022-09-19T07:41:08;7.90;99.90
14097;DHT22;7125;48.106;11.544;2022-09-19T07:43:54;7.90;99.90
14097;DHT22;7125;48.106;11.544;2022-09-19T07:46:39;7.90;99.90
14097;DHT22;7125;48.106;11.544;2022-09-19T07:49:45;7.90;99.90
14097;DHT22;7125;48.106;11.544;2022-09-19T07:52:33;8.00;99.90
14097;DHT22;7125;48.106;11.544;2022-09-19T07:55:00;8.00;99.90
14097;DHT22;7125;48.106;11.544;2022-09-19T07:57:29;8.00;99.90
14097;DHT22;7125;48.106;11.544;2022-09-19T07:59:56;8.10;99.90
14097;DHT22;7125;48.106;11.544;2022-09-19T08:02:24;8.10;99.90
14097;DHT22;7125;48.106;11.544;2022-09-19T08:04:52;8.20;99.90
14097;DHT22;7125;48.106;11.544;2022-09-19T08:07:21;8.20;99.90
14097;DHT22;7125;48.106;11.544;2022-09-19T08:12:26;8.30;99.90
14097;DHT22;7125;48.106;11.544;2022-09-19T08:15:04;8.40;99.90
14097;DHT22;7125;48.106;11.544;2022-09-19T08:17:31;8.40;99.90
14097;DHT22;7125;48.106;11.544;2022-09-19T08:19:58;8.50;99.90
14097;DHT22;7125;48.106;11.544;2022-09-19T08:22:25;8.60;99.90
14097;DHT22;7125;48.106;11.544;2022-09-19T08:24:59;8.60;99.90
14097;DHT22;7125;48.106;11.544;2022-09-19T08:27:29;8.70;99.90
14097;DHT22;7125;48.106;11.544;2022-09-19T08:29:58;8.70;99.90
14097;DHT22;7125;48.106;11.544;2022-09-19T08:32:24;8.70;99.90
14097;DHT22;7125;48.106;11.544;2022-09-19T08:34:53;8.70;99.90
14097;DHT22;7125;48.106;11.544;2022-09-19T08:37:20;8.80;99.90
14097;DHT22;7125;48.106;11.544;2022-09-19T08:39:48;8.80;99.90
14097;DHT22;7125;48.106;11.544;2022-09-19T08:42:42;8.80;99.90
14097;DHT22;7125;48.106;11.544;2022-09-19T08:45:17;8.80;99.90
14097;DHT22;7125;48.106;11.544;2022-09-19T08:47:46;8.90;99.90
14097;DHT22;7125;48.106;11.544;2022-09-19T08:50:17;8.90;99.90
14097;DHT22;7125;48.106;11.544;2022-09-19T08:52:49;9.00;99.90
14097;DHT22;7125;48.106;11.544;2022-09-19T08:55:26;9.00;99.90
14097;DHT22;7125;48.106;11.544;2022-09-19T08:58:00;9.10;99.90
14097;DHT22;7125;48.106;11.544;2022-09-19T09:00:49;9.10;99.90
14097;DHT22;7125;48.106;11.544;2022-09-19T09:03:21;9.10;99.90
14097;DHT22;7125;48.106;11.544;2022-09-19T09:05:56;9.10;99.90
14097;DHT22;7125;48.106;11.544;2022-09-19T09:08:34;9.20;99.90
14097;DHT22;7125;48.106;11.544;2022-09-19T09:11:30;9.30;99.90
14097;DHT22;7125;48.106;11.544;2022-09-19T09:14:05;9.40;99.90
14097;DHT22;7125;48.106;11.544;2022-09-19T09:16:45;9.40;99.90
14097;DHT22;7125;48.106;11.544;2022-09-19T09:19:27;9.40;99.90
14097;DHT22;7125;48.106;11.544;2022-09-19T09:22:08;9.40;99.90
14097;DHT22;7125;48.106;11.544;2022-09-19T09:24:47;9.50;99.90
14097;DHT22;7125;48.106;11.544;2022-09-19T09:27:32;9.50;99.90
14097;DHT22;7125;48.106;11.544;2022-09-19T09:30:15;9.50;99.90
14097;DHT22;7125;48.106;11.544;2022-09-19T09:32:55;9.60;99.90
14097;DHT22;7125;48.106;11.544;2022-09-19T09:35:32;9.60;99.90
14097;DHT22;7125;48.106;11.544;2022-09-19T09:38:12;9.60;99.90
14097;DHT22;7125;48.106;11.544;2022-09-19T09:40:46;9.70;99.90
14097;DHT22;7125;48.106;11.544;2022-09-19T09:43:36;9.70;99.90
14097;DHT22;7125;48.106;11.544;2022-09-19T09:46:16;9.80;99.90
14097;DHT22;7125;48.106;11.544;2022-09-19T09:48:49;9.90;99.90
14097;DHT22;7125;48.106;11.544;2022-09-19T09:51:28;9.90;99.90
14097;DHT22;7125;48.106;11.544;2022-09-19T09:54:09;9.90;99.90
14097;DHT22;7125;48.106;11.544;2022-09-19T09:56:56;9.90;99.90
14097;DHT22;7125;48.106;11.544;2022-09-19T09:59:30;9.90;99.90
14097;DHT22;7125;48.106;11.544;2022-09-19T10:02:26;10.00;99.90
14097;DHT22;7125;48.106;11.544;2022-09-19T10:05:15;10.00;99.90
14097;DHT22;7125;48.106;11.544;2022-09-19T10:07:56;10.00;99.90
14097;DHT22;7125;48.106;11.544;2022-09-19T10:10:31;10.00;99.90
14097;DHT22;7125;48.106;11.544;2022-09-19T10:13:01;10.00;99.90
14097;DHT22;7125;48.106;11.544;2022-09-19T10:15:36;10.10;99.90
14097;DHT22;7125;48.106;11.544;2022-09-19T10:18:15;10.10;99.90
14097;DHT22;7125;48.106;11.544;2022-09-19T10:21:01;10.10;99.90
14097;DHT22;7125;48.106;11.544;2022-09-19T10:23:33;10.20;99.90
14097;DHT22;7125;48.106;11.544;2022-09-19T10:26:08;10.20;99.90
14097;DHT22;7125;48.106;11.544;2022-09-19T10:28:44;10.30;99.90
14097;DHT22;7125;48.106;11.544;2022-09-19T10:31:28;10.30;99.90
14097;DHT22;7125;48.106;11.544;2022-09-19T10:34:22;10.30;99.90
14097;DHT22;7125;48.106;11.544;2022-09-19T10:36:49;10.40;99.90
14097;DHT22;7125;48.106;11.544;2022-09-19T10:39:21;10.40;99.90
14097;DHT22;7125;48.106;11.544;2022-09-19T10:41:49;10.40;99.90
14097;DHT22;7125;48.106;11.544;2022-09-19T10:44:18;10.50;99.90
14097;DHT22;7125;48.106;11.544;2022-09-19T10:46:50;10.60;99.90
14097;DHT22;7125;48.106;11.544;2022-09-19T10:49:43;10.60;99.90
14097;DHT22;7125;48.106;11.544;2022-09-19T10:52:19;10.70;99.90
14097;DHT22;7125;48.106;11.544;2022-09-19T10:54:51;10.80;99.90
14097;DHT22;7125;48.106;11.544;2022-09-19T10:57:38;10.90;99.90
14097;DHT22;7125;48.106;11.544;2022-09-19T11:00:23;10.90;99.90
14097;DHT22;7125;48.106;11.544;2022-09-19T11:03:01;10.90;99.90
14097;DHT22;7125;48.106;11.544;2022-09-19T11:05:33;10.90;99.90
14097;DHT22;7125;48.106;11.544;2022-09-19T11:08:02;10.90;99.90
14097;DHT22;7125;48.106;11.544;2022-09-19T11:10:37;11.00;99.90
14097;DHT22;7125;48.106;11.544;2022-09-19T11:13:14;11.00;99.90
14097;DHT22;7125;48.106;11.544;2022-09-19T11:18:58;11.00;99.90
14097;DHT22;7125;48.106;11.544;2022-09-19T11:21:45;11.10;99.90
14097;DHT22;7125;48.106;11.544;2022-09-19T11:24:38;11.20;99.90
14097;DHT22;7125;48.106;11.544;2022-09-19T11:27:22;11.30;99.90
14097;DHT22;7125;48.106;11.544;2022-09-19T11:30:02;11.30;99.90
14097;DHT22;7125;48.106;11.544;2022-09-19T11:32:48;11.50;99.90
14097;DHT22;7125;48.106;11.544;2022-09-19T11:35:25;11.50;99.90
14097;DHT22;7125;48.106;11.544;2022-09-19T11:38:04;11.60;99.90
14097;DHT22;7125;48.106;11.544;2022-09-19T11:40:44;11.60;99.90
14097;DHT22;7125;48.106;11.544;2022-09-19T11:43:22;11.70;99.90
14097;DHT22;7125;48.106;11.544;2022-09-19T11:46:09;11.80;99.90
14097;DHT22;7125;48.106;11.544;2022-09-19T11:49:18;11.80;99.90
14097;DHT22;7125;48.106;11.544;2022-09-19T11:51:57;11.70;99.90
14097;DHT22;7125;48.106;11.544;2022-09-19T11:54:42;11.70;99.90
14097;DHT22;7125;48.106;11.544;2022-09-19T11:57:19;11.60;99.90
14097;DHT22;7125;48.106;11.544;2022-09-19T12:00:02;11.50;99.90
14097;DHT22;7125;48.106;11.544;2022-09-19T12:02:55;11.50;99.90
14097;DHT22;7125;48.106;11.544;2022-09-19T12:05:34;11.60;99.90
14097;DHT22;7125;48.106;11.544;2022-09-19T12:08:26;11.60;99.90
14097;DHT22;7125;48.106;11.544;2022-09-19T12:11:01;11.70;99.90
14097;DHT22;7125;48.106;11.544;2022-09-19T12:13:39;11.80;99.90
14097;DHT22;7125;48.106;11.544;2022-09-19T12:16:12;11.80;99.90
14097;DHT22;7125;48.106;11.544;2022-09-19T12:18:44;11.80;99.90
14097;DHT22;7125;48.106;11.544;2022-09-19T12:21:19;11.80;99.90
14097;DHT22;7125;48.106;11.544;2022-09-19T12:23:52;11.90;99.90
14097;DHT22;7125;48.106;11.544;2022-09-19T12:26:47;11.80;99.90
14097;DHT22;7125;48.106;11.544;2022-09-19T12:29:24;11.80;99.90
14097;DHT22;7125;48.106;11.544;2022-09-19T12:31:58;11.90;99.90
14097;DHT22;7125;48.106;11.544;2022-09-19T12:34:30;12.00;99.90
14097;DHT22;7125;48.106;11.544;2022-09-19T12:37:08;12.10;99.90
14097;DHT22;7125;48.106;11.544;2022-09-19T12:39:44;12.30;99.90
14097;DHT22;7125;48.106;11.544;2022-09-19T12:42:18;12.40;99.90
14097;DHT22;7125;48.106;11.544;2022-09-19T12:44:55;12.50;99.90
14097;DHT22;7125;48.106;11.544;2022-09-19T12:47:44;12.40;99.90
14097;DHT22;7125;48.106;11.544;2022-09-19T12:50:22;12.40;99.90
14097;DHT22;7125;48.106;11.544;2022-09-19T12:53:02;12.30;99.90
14097;DHT22;7125;48.106;11.544;2022-09-19T12:55:35;12.30;99.90
14097;DHT22;7125;48.106;11.544;2022-09-19T12:58:09;12.20;99.90
14097;DHT22;7125;48.106;11.544;2022-09-19T13:00:41;12.20;99.90
14097;DHT22;7125;48.106;11.544;2022-09-19T13:03:15;12.10;99.90
14097;DHT22;7125;48.106;11.544;2022-09-19T13:05:49;12.10;99.90
14097;DHT22;7125;48.106;11.544;2022-09-19T13:08:21;12.00;99.90
14097;DHT22;7125;48.106;11.544;2022-09-19T13:10:50;11.90;99.90
14097;DHT22;7125;48.106;11.544;2022-09-19T13:13:27;11.90;99.90
14097;DHT22;7125;48.106;11.544;2022-09-19T13:15:59;11.90;99.90
14097;DHT22;7125;48.106;11.544;2022-09-19T13:18:28;11.90;99.90
14097;DHT22;7125;48.106;11.544;2022-09-19T13:21:18;11.90;99.90
14097;DHT22;7125;48.106;11.544;2022-09-19T13:24:17;11.90;99.90
14097;DHT22;7125;48.106;11.544;2022-09-19T13:26:51;11.90;99.90
14097;DHT22;7125;48.106;11.544;2022-09-19T13:29:44;11.90;99.90
14097;DHT22;7125;48.106;11.544;2022-09-19T13:32:31;11.90;99.90
14097;DHT22;7125;48.106;11.544;2022-09-19T13:35:15;11.90;99.90
14097;DHT22;7125;48.106;11.544;2022-09-19T13:38:18;11.90;99.90
14097;DHT22;7125;48.106;11.544;2022-09-19T13:40:57;11.80;99.90
14097;DHT22;7125;48.106;11.544;2022-09-19T13:43:37;11.80;99.90
14097;DHT22;7125;48.106;11.544;2022-09-19T13:46:13;11.80;99.90
14097;DHT22;7125;48.106;11.544;2022-09-19T13:48:45;11.70;99.90
14097;DHT22;7125;48.106;11.544;2022-09-19T13:51:21;11.80;99.90
14097;DHT22;7125;48.106;11.544;2022-09-19T13:54:27;11.80;99.90
14097;DHT22;7125;48.106;11.544;2022-09-19T13:57:02;11.80;99.90
14097;DHT22;7125;48.106;11.544;2022-09-19T13:59:30;11.90;99.90
14097;DHT22;7125;48.106;11.544;2022-09-19T14:02:03;11.90;99.90
14097;DHT22;7125;48.106;11.544;2022-09-19T14:04:37;12.00;99.90
14097;DHT22;7125;48.106;11.544;2022-09-19T14:07:31;12.00;99.90
14097;DHT22;7125;48.106;11.544;2022-09-19T14:10:00;12.00;99.90
14097;DHT22;7125;48.106;11.544;2022-09-19T14:12:52;12.00;99.90
14097;DHT22;7125;48.106;11.544;2022-09-19T14:18:52;12.20;99.90
14097;DHT22;7125;48.106;11.544;2022-09-19T14:21:53;12.30;99.90
14097;DHT22;7125;48.106;11.544;2022-09-19T14:24:40;12.40;99.90
14097;DHT22;7125;48.106;11.544;2022-09-19T14:27:18;12.60;99.90
14097;DHT22;7125;48.106;11.544;2022-09-19T14:29:50;12.80;99.90
14097;DHT22;7125;48.106;11.544;2022-09-19T14:32:30;13.00;99.90
14097;DHT22;7125;48.106;11.544;2022-09-19T14:35:32;13.30;99.90
14097;DHT22;7125;48.106;11.544;2022-09-19T14:38:23;13.70;99.90
14097;DHT22;7125;48.106;11.544;2022-09-19T14:41:02;14.00;99.90
14097;DHT22;7125;48.106;11.544;2022-09-19T14:44:03;14.20;99.90
14097;DHT22;7125;48.106;11.544;2022-09-19T14:46:37;14.30;99.90
14097;DHT22;7125;48.106;11.544;2022-09-19T14:49:11;14.40;99.90
14097;DHT22;7125;48.106;11.544;2022-09-19T14:51:47;14.50;99.90
14097;DHT22;7125;48.106;11.544;2022-09-19T14:54:17;14.70;99.90
14097;DHT22;7125;48.106;11.544;2022-09-19T14:56:57;14.60;99.90
14097;DHT22;7125;48.106;11.544;2022-09-19T14:59:25;14.60;99.90
14097;DHT22;7125;48.106;11.544;2022-09-19T15:02:05;14.60;99.90
14097;DHT22;7125;48.106;11.544;2022-09-19T15:04:33;14.70;99.90
14097;DHT22;7125;48.106;11.544;2022-09-19T15:07:03;14.80;99.90
14097;DHT22;7125;48.106;11.544;2022-09-19T15:09:32;14.90;99.90
14097;DHT22;7125;48.106;11.544;2022-09-19T15:12:02;15.10;99.90
14097;DHT22;7125;48.106;11.544;2022-09-19T15:14:31;15.20;99.90
14097;DHT22;7125;48.106;11.544;2022-09-19T15:17:08;15.30;99.90
14097;DHT22;7125;48.106;11.544;2022-09-19T15:19:37;15.30;99.90
14097;DHT22;7125;48.106;11.544;2022-09-19T15:22:17;15.30;99.90
14097;DHT22;7125;48.106;11.544;2022-09-19T15:24:48;15.30;99.90
14097;DHT22;7125;48.106;11.544;2022-09-19T15:27:16;15.30;99.90
14097;DHT22;7125;48.106;11.544;2022-09-19T15:29:44;15.30;99.90
14097;DHT22;7125;48.106;11.544;2022-09-19T15:32:21;15.10;99.90
14097;DHT22;7125;48.106;11.544;2022-09-19T15:34:52;14.90;99.90
14097;DHT22;7125;48.106;11.544;2022-09-19T15:37:23;14.60;99.90
14097;DHT22;7125;48.106;11.544;2022-09-19T15:39:52;14.30;99.90
14097;DHT22;7125;48.106;11.544;2022-09-19T15:42:20;13.90;99.90
14097;DHT22;7125;48.106;11.544;2022-09-19T15:44:47;13.70;99.90
14097;DHT22;7125;48.106;11.544;2022-09-19T15:47:16;13.40;99.90
14097;DHT22;7125;48.106;11.544;2022-09-19T15:49:46;13.10;99.90
14097;DHT22;7125;48.106;11.544;2022-09-19T15:52:16;12.90;99.90
14097;DHT22;7125;48.106;11.544;2022-09-19T15:54:50;12.80;99.90
14097;DHT22;7125;48.106;11.544;2022-09-19T15:57:23;12.60;99.90
14097;DHT22;7125;48.106;11.544;2022-09-19T15:59:57;12.50;99.90
14097;DHT22;7125;48.106;11.544;2022-09-19T16:02:30;12.40;99.90
14097;DHT22;7125;48.106;11.544;2022-09-19T16:05:10;12.40;99.90
14097;DHT22;7125;48.106;11.544;2022-09-19T16:07:41;12.30;99.90
14097;DHT22;7125;48.106;11.544;2022-09-19T16:10:33;12.30;99.90
14097;DHT22;7125;48.106;11.544;2022-09-19T16:13:01;12.30;99.90
14097;DHT22;7125;48.106;11.544;2022-09-19T16:15:34;12.30;99.90
14097;DHT22;7125;48.106;11.544;2022-09-19T16:21:02;12.50;99.90
14097;DHT22;7125;48.106;11.544;2022-09-19T16:23:41;12.50;99.90
14097;DHT22;7125;48.106;11.544;2022-09-19T16:26:11;12.50;99.90
14097;DHT22;7125;48.106;11.544;2022-09-19T16:28:41;12.50;99.90
14097;DHT22;7125;48.106;11.544;2022-09-19T16:31:19;12.50;99.90
14097;DHT22;7125;48.106;11.544;2022-09-19T16:33:49;12.40;99.90
14097;DHT22;7125;48.106;11.544;2022-09-19T16:36:17;12.40;99.90
14097;DHT22;7125;48.106;11.544;2022-09-19T16:39:20;12.40;99.90
14097;DHT22;7125;48.106;11.544;2022-09-19T16:42:01;12.40;99.90
14097;DHT22;7125;48.106;11.544;2022-09-19T16:44:33;12.30;99.90
14097;DHT22;7125;48.106;11.544;2022-09-19T16:47:09;12.20;99.90
14097;DHT22;7125;48.106;11.544;2022-09-19T16:49:36;12.20;99.90
14097;DHT22;7125;48.106;11.544;2022-09-19T16:52:03;12.10;99.90